sensor_id;sensor_type;location;lat;lon;timestamp;P1;durP1;ratioP1;P2;durP2;ratioP2
57643;SDS011;43474;46.510;6.686;2024-03-23T00:51:23;1.38;;;1.20;;
57643;SDS011;43474;46.510;6.686;2024-03-23T00:53:49;1.15;;;0.93;;
57643;SDS011;43474;46.510;6.686;2024-03-23T00:56:14;5.82;;;1.27;;
57643;SDS011;43474;46.510;6.686;2024-03-23T00:58:40;1.10;;;1.00;;
57643;SDS011;43474;46.510;6.686;2024-03-23T01:01:06;2.35;;;1.20;;
57643;SDS011;43474;46.510;6.686;2024-03-23T01:03:32;3.65;;;1.20;;
57643;SDS011;43474;46.510;6.686;2024-03-23T01:06:01;1.60;;;0.82;;
57643;SDS011;43474;46.510;6.686;2024-03-23T01:08:28;2.60;;;1.30;;
57643;SDS011;43474;46.510;6.686;2024-03-23T01:10:57;1.80;;;1.20;;
57643;SDS011;43474;46.510;6.686;2024-03-23T01:13:23;3.50;;;1.35;;
57643;SDS011;43474;46.510;6.686;2024-03-23T01:15:50;1.35;;;1.13;;
57643;SDS011;43474;46.510;6.686;2024-03-23T01:18:17;2.47;;;1.40;;
57643;SDS011;43474;46.510;6.686;2024-03-23T01:20:43;2.58;;;1.17;;
57643;SDS011;43474;46.510;6.686;2024-03-23T01:23:09;4.10;;;1.50;;
57643;SDS011;43474;46.510;6.686;2024-03-23T01:25:35;1.25;;;1.15;;
57643;SDS011;43474;46.510;6.686;2024-03-23T01:28:01;2.45;;;1.50;;
57643;SDS011;43474;46.510;6.686;2024-03-23T01:30:27;1.75;;;1.00;;
57643;SDS011;43474;46.510;6.686;2024-03-23T01:32:52;1.67;;;1.08;;
57643;SDS011;43474;46.510;6.686;2024-03-23T01:35:18;1.63;;;1.20;;
57643;SDS011;43474;46.510;6.686;2024-03-23T01:37:43;4.25;;;1.20;;
57643;SDS011;43474;46.510;6.686;2024-03-23T01:40:10;2.65;;;1.42;;
57643;SDS011;43474;46.510;6.686;2024-03-23T01:42:38;2.08;;;1.35;;
57643;SDS011;43474;46.510;6.686;2024-03-23T01:45:08;2.83;;;1.40;;
57643;SDS011;43474;46.510;6.686;2024-03-23T01:47:35;1.98;;;1.13;;
57643;SDS011;43474;46.510;6.686;2024-03-23T01:50:01;2.22;;;1.40;;
57643;SDS011;43474;46.510;6.686;2024-03-23T01:52:27;1.20;;;1.00;;
57643;SDS011;43474;46.510;6.686;2024-03-23T01:54:53;3.25;;;1.23;;
57643;SDS011;43474;46.510;6.686;2024-03-23T01:57:21;6.90;;;1.60;;
57643;SDS011;43474;46.510;6.686;2024-03-23T01:59:48;1.65;;;1.45;;
57643;SDS011;43474;46.510;6.686;2024-03-23T02:02:14;4.95;;;1.40;;
57643;SDS011;43474;46.510;6.686;2024-03-23T02:04:43;1.65;;;1.23;;
57643;SDS011;43474;46.510;6.686;2024-03-23T02:07:08;1.60;;;1.08;;
57643;SDS011;43474;46.510;6.686;2024-03-23T02:09:35;3.05;;;1.60;;
57643;SDS011;43474;46.510;6.686;2024-03-23T02:12:02;1.38;;;1.27;;
57643;SDS011;43474;46.510;6.686;2024-03-23T02:14:29;1.67;;;0.80;;
57643;SDS011;43474;46.510;6.686;2024-03-23T02:16:55;2.30;;;1.05;;
57643;SDS011;43474;46.510;6.686;2024-03-23T02:19:21;2.58;;;0.98;;
57643;SDS011;43474;46.510;6.686;2024-03-23T02:21:46;2.35;;;1.10;;
57643;SDS011;43474;46.510;6.686;2024-03-23T02:24:13;1.10;;;1.00;;
57643;SDS011;43474;46.510;6.686;2024-03-23T02:26:38;1.63;;;1.17;;
57643;SDS011;43474;46.510;6.686;2024-03-23T02:29:04;2.50;;;1.15;;
57643;SDS011;43474;46.510;6.686;2024-03-23T02:31:30;1.23;;;0.95;;
57643;SDS011;43474;46.510;6.686;2024-03-23T02:33:56;2.08;;;1.08;;
57643;SDS011;43474;46.510;6.686;2024-03-23T02:36:21;0.90;;;0.90;;
57643;SDS011;43474;46.510;6.686;2024-03-23T02:38:47;1.52;;;1.13;;
57643;SDS011;43474;46.510;6.686;2024-03-23T02:41:12;1.92;;;1.10;;
57643;SDS011;43474;46.510;6.686;2024-03-23T02:43:39;1.50;;;1.15;;
57643;SDS011;43474;46.510;6.686;2024-03-23T02:46:04;6.97;;;1.15;;
57643;SDS011;43474;46.510;6.686;2024-03-23T02:48:30;0.80;;;0.80;;
57643;SDS011;43474;46.510;6.686;2024-03-23T02:50:56;3.13;;;1.38;;
57643;SDS011;43474;46.510;6.686;2024-03-23T02:53:22;2.10;;;1.40;;
57643;SDS011;43474;46.510;6.686;2024-03-23T02:55:47;1.17;;;0.90;;
57643;SDS011;43474;46.510;6.686;2024-03-23T02:58:13;2.42;;;1.13;;
57643;SDS011;43474;46.510;6.686;2024-03-23T03:00:38;1.27;;;1.00;;
57643;SDS011;43474;46.510;6.686;2024-03-23T03:03:04;2.08;;;1.17;;
57643;SDS011;43474;46.510;6.686;2024-03-23T03:05:30;1.70;;;1.13;;
57643;SDS011;43474;46.510;6.686;2024-03-23T03:07:56;1.42;;;1.08;;
57643;SDS011;43474;46.510;6.686;2024-03-23T03:10:21;4.82;;;1.00;;
57643;SDS011;43474;46.510;6.686;2024-03-23T03:12:47;2.13;;;1.08;;
57643;SDS011;43474;46.510;6.686;2024-03-23T03:15:13;1.00;;;1.00;;
57643;SDS011;43474;46.510;6.686;2024-03-23T03:17:39;2.25;;;1.13;;
57643;SDS011;43474;46.510;6.686;2024-03-23T03:20:04;1.77;;;1.08;;
57643;SDS011;43474;46.510;6.686;2024-03-23T03:22:31;1.08;;;0.77;;
57643;SDS011;43474;46.510;6.686;2024-03-23T03:24:57;1.67;;;1.17;;
57643;SDS011;43474;46.510;6.686;2024-03-23T03:27:23;1.75;;;0.95;;
57643;SDS011;43474;46.510;6.686;2024-03-23T03:29:49;2.67;;;0.85;;
57643;SDS011;43474;46.510;6.686;2024-03-23T03:32:15;4.18;;;1.25;;
57643;SDS011;43474;46.510;6.686;2024-03-23T03:34:40;1.02;;;0.80;;
57643;SDS011;43474;46.510;6.686;2024-03-23T03:37:06;1.42;;;1.00;;
57643;SDS011;43474;46.510;6.686;2024-03-23T03:39:31;3.83;;;1.45;;
57643;SDS011;43474;46.510;6.686;2024-03-23T03:41:57;1.10;;;1.00;;
57643;SDS011;43474;46.510;6.686;2024-03-23T03:44:23;2.38;;;1.10;;
57643;SDS011;43474;46.510;6.686;2024-03-23T03:46:49;1.38;;;1.08;;
57643;SDS011;43474;46.510;6.686;2024-03-23T03:49:14;2.13;;;0.65;;
57643;SDS011;43474;46.510;6.686;2024-03-23T03:51:40;0.95;;;0.90;;
57643;SDS011;43474;46.510;6.686;2024-03-23T03:54:06;2.53;;;1.08;;
57643;SDS011;43474;46.510;6.686;2024-03-23T03:56:32;1.40;;;0.80;;
57643;SDS011;43474;46.510;6.686;2024-03-23T03:58:57;3.30;;;1.05;;
57643;SDS011;43474;46.510;6.686;2024-03-23T04:01:23;2.72;;;1.17;;
57643;SDS011;43474;46.510;6.686;2024-03-23T04:03:49;1.35;;;1.00;;
57643;SDS011;43474;46.510;6.686;2024-03-23T04:06:20;1.27;;;1.08;;
57643;SDS011;43474;46.510;6.686;2024-03-23T04:08:46;7.25;;;1.08;;
57643;SDS011;43474;46.510;6.686;2024-03-23T04:11:12;1.77;;;1.10;;
57643;SDS011;43474;46.510;6.686;2024-03-23T04:13:37;3.42;;;1.50;;
57643;SDS011;43474;46.510;6.686;2024-03-23T04:16:03;6.22;;;1.08;;
57643;SDS011;43474;46.510;6.686;2024-03-23T04:18:29;1.38;;;1.27;;
57643;SDS011;43474;46.510;6.686;2024-03-23T04:20:55;3.83;;;1.45;;
57643;SDS011;43474;46.510;6.686;2024-03-23T04:23:20;1.25;;;0.93;;
57643;SDS011;43474;46.510;6.686;2024-03-23T04:25:46;2.92;;;1.10;;
57643;SDS011;43474;46.510;6.686;2024-03-23T04:28:12;1.55;;;0.95;;
57643;SDS011;43474;46.510;6.686;2024-03-23T04:30:38;1.45;;;0.98;;
57643;SDS011;43474;46.510;6.686;2024-03-23T04:33:03;1.35;;;1.15;;
57643;SDS011;43474;46.510;6.686;2024-03-23T04:35:30;6.00;;;1.50;;
57643;SDS011;43474;46.510;6.686;2024-03-23T04:37:56;2.45;;;1.48;;
57643;SDS011;43474;46.510;6.686;2024-03-23T04:40:24;2.38;;;1.40;;
57643;SDS011;43474;46.510;6.686;2024-03-23T04:42:51;1.70;;;1.23;;
57643;SDS011;43474;46.510;6.686;2024-03-23T04:45:16;1.27;;;1.10;;
57643;SDS011;43474;46.510;6.686;2024-03-23T04:47:42;4.75;;;1.85;;
57643;SDS011;43474;46.510;6.686;2024-03-23T04:50:08;2.30;;;1.55;;
57643;SDS011;43474;46.510;6.686;2024-03-23T04:52:35;2.00;;;1.70;;
57643;SDS011;43474;46.510;6.686;2024-03-23T04:55:01;2.65;;;1.50;;
57643;SDS011;43474;46.510;6.686;2024-03-23T04:57:27;2.70;;;1.73;;
57643;SDS011;43474;46.510;6.686;2024-03-23T04:59:53;4.57;;;1.75;;
57643;SDS011;43474;46.510;6.686;2024-03-23T05:02:18;2.47;;;1.48;;
57643;SDS011;43474;46.510;6.686;2024-03-23T05:04:44;1.42;;;1.17;;
57643;SDS011;43474;46.510;6.686;2024-03-23T05:07:10;0.75;;;0.65;;
57643;SDS011;43474;46.510;6.686;2024-03-23T05:09:36;5.57;;;1.70;;
57643;SDS011;43474;46.510;6.686;2024-03-23T05:12:02;2.83;;;2.03;;
57643;SDS011;43474;46.510;6.686;2024-03-23T05:14:28;2.10;;;1.35;;
57643;SDS011;43474;46.510;6.686;2024-03-23T05:16:54;3.35;;;2.17;;
57643;SDS011;43474;46.510;6.686;2024-03-23T05:19:20;3.50;;;2.15;;
57643;SDS011;43474;46.510;6.686;2024-03-23T05:21:45;3.83;;;2.17;;
57643;SDS011;43474;46.510;6.686;2024-03-23T05:24:11;6.03;;;2.40;;
57643;SDS011;43474;46.510;6.686;2024-03-23T05:26:37;3.92;;;1.98;;
57643;SDS011;43474;46.510;6.686;2024-03-23T05:29:03;3.67;;;2.22;;
57643;SDS011;43474;46.510;6.686;2024-03-23T05:31:31;1.73;;;1.63;;
57643;SDS011;43474;46.510;6.686;2024-03-23T05:33:57;3.72;;;2.20;;
57643;SDS011;43474;46.510;6.686;2024-03-23T05:36:22;2.90;;;2.30;;
57643;SDS011;43474;46.510;6.686;2024-03-23T05:38:51;2.45;;;1.67;;
57643;SDS011;43474;46.510;6.686;2024-03-23T05:41:17;3.50;;;2.58;;
57643;SDS011;43474;46.510;6.686;2024-03-23T05:43:43;3.75;;;2.42;;
57643;SDS011;43474;46.510;6.686;2024-03-23T05:46:09;4.47;;;2.42;;
57643;SDS011;43474;46.510;6.686;2024-03-23T05:48:35;7.93;;;2.25;;
57643;SDS011;43474;46.510;6.686;2024-03-23T05:51:00;3.22;;;2.10;;
57643;SDS011;43474;46.510;6.686;2024-03-23T05:53:26;1.17;;;0.90;;
57643;SDS011;43474;46.510;6.686;2024-03-23T05:56:00;3.47;;;1.75;;
57643;SDS011;43474;46.510;6.686;2024-03-23T05:58:32;4.03;;;2.28;;
57643;SDS011;43474;46.510;6.686;2024-03-23T06:00:58;2.78;;;1.65;;
57643;SDS011;43474;46.510;6.686;2024-03-23T06:03:26;3.88;;;2.28;;
57643;SDS011;43474;46.510;6.686;2024-03-23T06:05:53;4.90;;;1.80;;
57643;SDS011;43474;46.510;6.686;2024-03-23T06:08:19;2.42;;;1.48;;
57643;SDS011;43474;46.510;6.686;2024-03-23T06:10:45;3.15;;;1.40;;
57643;SDS011;43474;46.510;6.686;2024-03-23T06:13:11;3.03;;;1.30;;
57643;SDS011;43474;46.510;6.686;2024-03-23T06:15:37;2.05;;;1.15;;
57643;SDS011;43474;46.510;6.686;2024-03-23T06:18:10;2.15;;;1.45;;
57643;SDS011;43474;46.510;6.686;2024-03-23T06:20:35;3.30;;;1.77;;
57643;SDS011;43474;46.510;6.686;2024-03-23T06:23:01;4.50;;;1.65;;
57643;SDS011;43474;46.510;6.686;2024-03-23T06:25:29;2.17;;;1.55;;
57643;SDS011;43474;46.510;6.686;2024-03-23T06:27:55;2.50;;;0.98;;
57643;SDS011;43474;46.510;6.686;2024-03-23T06:30:23;1.05;;;0.98;;
57643;SDS011;43474;46.510;6.686;2024-03-23T06:32:49;2.25;;;1.20;;
57643;SDS011;43474;46.510;6.686;2024-03-23T06:35:14;2.65;;;1.75;;
57643;SDS011;43474;46.510;6.686;2024-03-23T06:37:40;1.63;;;1.10;;
57643;SDS011;43474;46.510;6.686;2024-03-23T06:40:07;1.52;;;1.10;;
57643;SDS011;43474;46.510;6.686;2024-03-23T06:42:35;4.32;;;1.13;;
57643;SDS011;43474;46.510;6.686;2024-03-23T06:45:02;1.48;;;0.73;;
57643;SDS011;43474;46.510;6.686;2024-03-23T06:47:30;1.33;;;1.02;;
57643;SDS011;43474;46.510;6.686;2024-03-23T06:49:56;4.05;;;0.90;;
57643;SDS011;43474;46.510;6.686;2024-03-23T06:52:22;1.60;;;1.10;;
57643;SDS011;43474;46.510;6.686;2024-03-23T06:54:47;2.70;;;0.70;;
57643;SDS011;43474;46.510;6.686;2024-03-23T06:57:13;2.70;;;1.00;;
57643;SDS011;43474;46.510;6.686;2024-03-23T06:59:39;2.38;;;1.38;;
57643;SDS011;43474;46.510;6.686;2024-03-23T07:02:08;1.60;;;1.13;;
57643;SDS011;43474;46.510;6.686;2024-03-23T07:04:34;1.40;;;1.30;;
57643;SDS011;43474;46.510;6.686;2024-03-23T07:07:00;1.38;;;0.68;;
57643;SDS011;43474;46.510;6.686;2024-03-23T07:09:27;0.75;;;0.75;;
57643;SDS011;43474;46.510;6.686;2024-03-23T07:11:54;1.73;;;1.10;;
57643;SDS011;43474;46.510;6.686;2024-03-23T07:14:21;1.58;;;0.60;;
57643;SDS011;43474;46.510;6.686;2024-03-23T07:16:47;2.22;;;1.00;;
57643;SDS011;43474;46.510;6.686;2024-03-23T07:19:15;1.55;;;1.00;;
57643;SDS011;43474;46.510;6.686;2024-03-23T07:21:42;1.58;;;0.98;;
57643;SDS011;43474;46.510;6.686;2024-03-23T07:24:08;1.77;;;1.20;;
57643;SDS011;43474;46.510;6.686;2024-03-23T07:26:34;0.60;;;0.32;;
57643;SDS011;43474;46.510;6.686;2024-03-23T07:29:00;1.65;;;1.13;;
57643;SDS011;43474;46.510;6.686;2024-03-23T07:31:26;1.75;;;1.02;;
57643;SDS011;43474;46.510;6.686;2024-03-23T07:33:51;1.40;;;1.20;;
57643;SDS011;43474;46.510;6.686;2024-03-23T07:36:17;0.75;;;0.60;;
57643;SDS011;43474;46.510;6.686;2024-03-23T07:38:43;0.68;;;0.40;;
57643;SDS011;43474;46.510;6.686;2024-03-23T07:41:15;0.82;;;0.70;;
57643;SDS011;43474;46.510;6.686;2024-03-23T07:43:45;1.13;;;0.52;;
57643;SDS011;43474;46.510;6.686;2024-03-23T07:46:12;0.32;;;0.30;;
57643;SDS011;43474;46.510;6.686;2024-03-23T07:48:39;0.45;;;0.30;;
57643;SDS011;43474;46.510;6.686;2024-03-23T07:53:33;0.30;;;0.20;;
57643;SDS011;43474;46.510;6.686;2024-03-23T07:56:06;0.47;;;0.25;;
57643;SDS011;43474;46.510;6.686;2024-03-23T07:58:35;0.10;;;0.10;;
57643;SDS011;43474;46.510;6.686;2024-03-23T08:01:11;0.00;;;0.00;;
57643;SDS011;43474;46.510;6.686;2024-03-23T08:03:44;0.20;;;0.20;;
57643;SDS011;43474;46.510;6.686;2024-03-23T08:06:11;0.05;;;0.05;;
57643;SDS011;43474;46.510;6.686;2024-03-23T08:08:39;0.10;;;0.10;;
57643;SDS011;43474;46.510;6.686;2024-03-23T08:11:05;0.00;;;0.00;;
57643;SDS011;43474;46.510;6.686;2024-03-23T08:13:31;0.00;;;0.00;;
57643;SDS011;43474;46.510;6.686;2024-03-23T08:15:58;0.10;;;0.10;;
57643;SDS011;43474;46.510;6.686;2024-03-23T08:18:24;0.30;;;0.10;;
57643;SDS011;43474;46.510;6.686;2024-03-23T08:21:00;0.15;;;0.15;;
57643;SDS011;43474;46.510;6.686;2024-03-23T08:23:29;0.10;;;0.10;;
57643;SDS011;43474;46.510;6.686;2024-03-23T08:26:02;0.13;;;0.10;;
57643;SDS011;43474;46.510;6.686;2024-03-23T08:28:29;0.00;;;0.00;;
57643;SDS011;43474;46.510;6.686;2024-03-23T08:30:55;0.20;;;0.10;;
57643;SDS011;43474;46.510;6.686;2024-03-23T08:33:21;0.00;;;0.00;;
57643;SDS011;43474;46.510;6.686;2024-03-23T08:36:04;0.00;;;0.00;;
57643;SDS011;43474;46.510;6.686;2024-03-23T08:38:31;0.70;;;0.17;;
57643;SDS011;43474;46.510;6.686;2024-03-23T08:40:58;0.10;;;0.10;;
57643;SDS011;43474;46.510;6.686;2024-03-23T08:43:29;0.10;;;0.10;;
57643;SDS011;43474;46.510;6.686;2024-03-23T08:46:03;0.20;;;0.20;;
57643;SDS011;43474;46.510;6.686;2024-03-23T08:48:36;0.13;;;0.10;;
57643;SDS011;43474;46.510;6.686;2024-03-23T08:51:03;0.70;;;0.10;;
57643;SDS011;43474;46.510;6.686;2024-03-23T08:53:30;0.03;;;0.00;;
57643;SDS011;43474;46.510;6.686;2024-03-23T08:55:56;0.10;;;0.10;;
57643;SDS011;43474;46.510;6.686;2024-03-23T08:58:23;1.17;;;0.25;;
57643;SDS011;43474;46.510;6.686;2024-03-23T09:00:50;0.10;;;0.10;;
57643;SDS011;43474;46.510;6.686;2024-03-23T09:03:24;0.10;;;0.10;;
57643;SDS011;43474;46.510;6.686;2024-03-23T09:05:50;0.20;;;0.20;;
57643;SDS011;43474;46.510;6.686;2024-03-23T09:08:17;0.20;;;0.10;;
57643;SDS011;43474;46.510;6.686;2024-03-23T09:10:45;0.68;;;0.47;;
57643;SDS011;43474;46.510;6.686;2024-03-23T09:13:13;2.33;;;0.10;;
57643;SDS011;43474;46.510;6.686;2024-03-23T09:15:54;1.75;;;0.10;;
57643;SDS011;43474;46.510;6.686;2024-03-23T09:18:22;0.10;;;0.10;;
57643;SDS011;43474;46.510;6.686;2024-03-23T09:20:48;0.10;;;0.10;;
57643;SDS011;43474;46.510;6.686;2024-03-23T09:23:32;0.20;;;0.20;;
57643;SDS011;43474;46.510;6.686;2024-03-23T09:26:02;0.00;;;0.00;;
57643;SDS011;43474;46.510;6.686;2024-03-23T09:28:56;0.90;;;0.30;;
57643;SDS011;43474;46.510;6.686;2024-03-23T09:31:24;0.40;;;0.10;;
57643;SDS011;43474;46.510;6.686;2024-03-23T09:33:50;0.20;;;0.20;;
57643;SDS011;43474;46.510;6.686;2024-03-23T09:36:19;0.20;;;0.20;;
57643;SDS011;43474;46.510;6.686;2024-03-23T09:39:17;0.32;;;0.17;;
57643;SDS011;43474;46.510;6.686;2024-03-23T09:41:54;0.65;;;0.20;;
57643;SDS011;43474;46.510;6.686;2024-03-23T09:44:56;0.28;;;0.13;;
57643;SDS011;43474;46.510;6.686;2024-03-23T09:47:30;0.10;;;0.10;;
57643;SDS011;43474;46.510;6.686;2024-03-23T09:50:01;1.27;;;0.20;;
57643;SDS011;43474;46.510;6.686;2024-03-23T09:52:26;0.57;;;0.05;;
57643;SDS011;43474;46.510;6.686;2024-03-23T09:54:53;0.15;;;0.10;;
57643;SDS011;43474;46.510;6.686;2024-03-23T09:57:18;0.17;;;0.17;;
57643;SDS011;43474;46.510;6.686;2024-03-23T09:59:53;0.65;;;0.20;;
57643;SDS011;43474;46.510;6.686;2024-03-23T10:06:12;0.73;;;0.20;;
57643;SDS011;43474;46.510;6.686;2024-03-23T10:08:39;0.22;;;0.10;;
57643;SDS011;43474;46.510;6.686;2024-03-23T10:11:17;0.10;;;0.10;;
57643;SDS011;43474;46.510;6.686;2024-03-23T10:14:29;0.30;;;0.10;;
57643;SDS011;43474;46.510;6.686;2024-03-23T10:17:16;0.40;;;0.10;;
57643;SDS011;43474;46.510;6.686;2024-03-23T10:23:01;0.75;;;0.40;;
57643;SDS011;43474;46.510;6.686;2024-03-23T10:26:43;2.20;;;0.38;;
57643;SDS011;43474;46.510;6.686;2024-03-23T10:37:15;0.50;;;0.30;;
57643;SDS011;43474;46.510;6.686;2024-03-23T10:40:48;0.50;;;0.40;;
57643;SDS011;43474;46.510;6.686;2024-03-23T10:44:12;0.57;;;0.47;;
57643;SDS011;43474;46.510;6.686;2024-03-23T10:50:25;1.35;;;0.45;;
57643;SDS011;43474;46.510;6.686;2024-03-23T10:57:20;1.55;;;0.20;;
57643;SDS011;43474;46.510;6.686;2024-03-23T11:03:44;3.35;;;0.40;;
57643;SDS011;43474;46.510;6.686;2024-03-23T11:06:40;3.67;;;0.60;;
57643;SDS011;43474;46.510;6.686;2024-03-23T11:09:46;1.83;;;0.32;;
57643;SDS011;43474;46.510;6.686;2024-03-23T11:12:49;1.38;;;0.30;;
57643;SDS011;43474;46.510;6.686;2024-03-23T11:25:30;0.82;;;0.30;;
57643;SDS011;43474;46.510;6.686;2024-03-23T11:27:57;0.75;;;0.40;;
57643;SDS011;43474;46.510;6.686;2024-03-23T11:30:42;0.95;;;0.30;;
57643;SDS011;43474;46.510;6.686;2024-03-23T11:33:27;1.50;;;0.28;;
57643;SDS011;43474;46.510;6.686;2024-03-23T11:36:06;0.98;;;0.22;;
57643;SDS011;43474;46.510;6.686;2024-03-23T11:41:55;0.55;;;0.17;;
57643;SDS011;43474;46.510;6.686;2024-03-23T11:44:25;2.00;;;0.40;;
57643;SDS011;43474;46.510;6.686;2024-03-23T11:46:51;0.08;;;0.08;;
57643;SDS011;43474;46.510;6.686;2024-03-23T11:52:13;2.97;;;0.68;;
57643;SDS011;43474;46.510;6.686;2024-03-23T12:01:55;0.93;;;0.20;;
57643;SDS011;43474;46.510;6.686;2024-03-23T12:04:30;0.17;;;0.17;;
57643;SDS011;43474;46.510;6.686;2024-03-23T12:11:57;0.13;;;0.10;;
57643;SDS011;43474;46.510;6.686;2024-03-23T12:22:42;0.68;;;0.30;;
57643;SDS011;43474;46.510;6.686;2024-03-23T12:25:28;1.35;;;0.35;;
57643;SDS011;43474;46.510;6.686;2024-03-23T12:28:12;1.98;;;0.40;;
57643;SDS011;43474;46.510;6.686;2024-03-23T12:30:41;1.05;;;0.40;;
57643;SDS011;43474;46.510;6.686;2024-03-23T12:35:58;1.63;;;0.60;;
57643;SDS011;43474;46.510;6.686;2024-03-23T12:38:24;2.13;;;0.77;;
57643;SDS011;43474;46.510;6.686;2024-03-23T12:45:01;0.98;;;0.40;;
57643;SDS011;43474;46.510;6.686;2024-03-23T12:52:14;0.65;;;0.38;;
57643;SDS011;43474;46.510;6.686;2024-03-23T12:58:53;2.60;;;0.40;;
57643;SDS011;43474;46.510;6.686;2024-03-23T13:04:41;1.05;;;0.45;;
57643;SDS011;43474;46.510;6.686;2024-03-23T13:11:05;0.77;;;0.25;;
57643;SDS011;43474;46.510;6.686;2024-03-23T13:17:35;3.83;;;0.28;;
57643;SDS011;43474;46.510;6.686;2024-03-23T13:39:03;0.35;;;0.35;;
57643;SDS011;43474;46.510;6.686;2024-03-23T13:41:38;0.65;;;0.32;;
57643;SDS011;43474;46.510;6.686;2024-03-23T13:44:17;1.83;;;0.50;;
57643;SDS011;43474;46.510;6.686;2024-03-23T14:03:30;1.52;;;0.40;;
57643;SDS011;43474;46.510;6.686;2024-03-23T14:06:46;3.00;;;0.50;;
57643;SDS011;43474;46.510;6.686;2024-03-23T14:12:27;0.47;;;0.22;;
57643;SDS011;43474;46.510;6.686;2024-03-23T14:18:04;0.65;;;0.20;;
57643;SDS011;43474;46.510;6.686;2024-03-23T14:23:55;0.25;;;0.25;;
57643;SDS011;43474;46.510;6.686;2024-03-23T14:29:50;1.75;;;0.40;;
57643;SDS011;43474;46.510;6.686;2024-03-23T14:35:26;1.55;;;0.35;;
57643;SDS011;43474;46.510;6.686;2024-03-23T14:46:26;0.82;;;0.35;;
57643;SDS011;43474;46.510;6.686;2024-03-23T14:50:08;0.15;;;0.13;;
57643;SDS011;43474;46.510;6.686;2024-03-23T14:52:59;0.75;;;0.22;;
57643;SDS011;43474;46.510;6.686;2024-03-23T15:01:48;3.10;;;0.20;;
57643;SDS011;43474;46.510;6.686;2024-03-23T15:04:37;0.75;;;0.47;;
57643;SDS011;43474;46.510;6.686;2024-03-23T15:19:06;2.00;;;0.50;;
57643;SDS011;43474;46.510;6.686;2024-03-23T15:21:36;1.38;;;0.35;;
57643;SDS011;43474;46.510;6.686;2024-03-23T15:24:03;0.32;;;0.30;;
57643;SDS011;43474;46.510;6.686;2024-03-23T15:26:32;2.80;;;0.32;;
57643;SDS011;43474;46.510;6.686;2024-03-23T15:29:02;2.10;;;0.30;;
57643;SDS011;43474;46.510;6.686;2024-03-23T15:31:45;0.65;;;0.20;;
57643;SDS011;43474;46.510;6.686;2024-03-23T15:34:25;0.35;;;0.10;;
57643;SDS011;43474;46.510;6.686;2024-03-23T15:37:35;2.63;;;0.35;;
57643;SDS011;43474;46.510;6.686;2024-03-23T15:40:07;2.22;;;0.52;;
57643;SDS011;43474;46.510;6.686;2024-03-23T15:42:41;0.55;;;0.10;;
57643;SDS011;43474;46.510;6.686;2024-03-23T15:45:07;1.48;;;0.30;;
57643;SDS011;43474;46.510;6.686;2024-03-23T15:47:35;0.82;;;0.30;;
57643;SDS011;43474;46.510;6.686;2024-03-23T15:50:07;2.90;;;0.40;;
57643;SDS011;43474;46.510;6.686;2024-03-23T15:53:02;0.28;;;0.20;;
57643;SDS011;43474;46.510;6.686;2024-03-23T15:55:28;0.70;;;0.25;;
57643;SDS011;43474;46.510;6.686;2024-03-23T15:58:17;0.88;;;0.25;;
57643;SDS011;43474;46.510;6.686;2024-03-23T16:00:57;0.50;;;0.20;;
57643;SDS011;43474;46.510;6.686;2024-03-23T16:03:50;1.67;;;0.20;;
57643;SDS011;43474;46.510;6.686;2024-03-23T16:06:27;1.17;;;0.32;;
57643;SDS011;43474;46.510;6.686;2024-03-23T16:09:16;0.90;;;0.28;;
57643;SDS011;43474;46.510;6.686;2024-03-23T16:14:35;0.00;;;0.00;;
57643;SDS011;43474;46.510;6.686;2024-03-23T16:17:04;2.67;;;0.30;;
57643;SDS011;43474;46.510;6.686;2024-03-23T16:19:34;0.00;;;0.00;;
57643;SDS011;43474;46.510;6.686;2024-03-23T16:22:31;0.68;;;0.30;;
57643;SDS011;43474;46.510;6.686;2024-03-23T16:25:04;0.75;;;0.28;;
57643;SDS011;43474;46.510;6.686;2024-03-23T16:27:34;1.25;;;0.47;;
57643;SDS011;43474;46.510;6.686;2024-03-23T16:30:06;0.73;;;0.17;;
57643;SDS011;43474;46.510;6.686;2024-03-23T16:32:32;1.60;;;0.03;;
57643;SDS011;43474;46.510;6.686;2024-03-23T16:35:01;1.10;;;0.20;;
57643;SDS011;43474;46.510;6.686;2024-03-23T16:37:26;0.63;;;0.30;;
57643;SDS011;43474;46.510;6.686;2024-03-23T16:39:53;4.32;;;0.52;;
57643;SDS011;43474;46.510;6.686;2024-03-23T16:42:18;0.10;;;0.10;;
57643;SDS011;43474;46.510;6.686;2024-03-23T16:44:45;0.30;;;0.22;;
57643;SDS011;43474;46.510;6.686;2024-03-23T16:47:11;3.50;;;0.30;;
57643;SDS011;43474;46.510;6.686;2024-03-23T16:49:37;0.60;;;0.28;;
57643;SDS011;43474;46.510;6.686;2024-03-23T16:52:03;0.95;;;0.20;;
57643;SDS011;43474;46.510;6.686;2024-03-23T16:54:30;0.52;;;0.20;;
57643;SDS011;43474;46.510;6.686;2024-03-23T16:56:56;0.20;;;0.17;;
57643;SDS011;43474;46.510;6.686;2024-03-23T16:59:22;4.63;;;0.20;;
57643;SDS011;43474;46.510;6.686;2024-03-23T17:01:48;0.52;;;0.20;;
57643;SDS011;43474;46.510;6.686;2024-03-23T17:04:14;0.25;;;0.17;;
57643;SDS011;43474;46.510;6.686;2024-03-23T17:06:40;2.92;;;0.45;;
57643;SDS011;43474;46.510;6.686;2024-03-23T17:09:06;1.52;;;0.82;;
57643;SDS011;43474;46.510;6.686;2024-03-23T17:11:32;0.38;;;0.20;;
57643;SDS011;43474;46.510;6.686;2024-03-23T17:13:58;1.30;;;0.15;;
57643;SDS011;43474;46.510;6.686;2024-03-23T17:16:24;0.28;;;0.10;;
57643;SDS011;43474;46.510;6.686;2024-03-23T17:18:51;1.88;;;0.30;;
57643;SDS011;43474;46.510;6.686;2024-03-23T17:21:18;0.52;;;0.40;;
57643;SDS011;43474;46.510;6.686;2024-03-23T17:23:44;0.93;;;0.20;;
57643;SDS011;43474;46.510;6.686;2024-03-23T17:26:10;4.43;;;0.50;;
57643;SDS011;43474;46.510;6.686;2024-03-23T17:28:38;0.63;;;0.35;;
57643;SDS011;43474;46.510;6.686;2024-03-23T17:31:03;0.28;;;0.17;;
57643;SDS011;43474;46.510;6.686;2024-03-23T17:33:30;1.90;;;0.45;;
57643;SDS011;43474;46.510;6.686;2024-03-23T17:35:55;0.00;;;0.00;;
57643;SDS011;43474;46.510;6.686;2024-03-23T17:38:22;0.32;;;0.20;;
57643;SDS011;43474;46.510;6.686;2024-03-23T17:40:48;0.45;;;0.35;;
57643;SDS011;43474;46.510;6.686;2024-03-23T17:43:13;0.30;;;0.08;;
57643;SDS011;43474;46.510;6.686;2024-03-23T17:45:39;0.25;;;0.22;;
57643;SDS011;43474;46.510;6.686;2024-03-23T17:48:05;0.90;;;0.15;;
57643;SDS011;43474;46.510;6.686;2024-03-23T17:50:31;0.40;;;0.30;;
57643;SDS011;43474;46.510;6.686;2024-03-23T17:53:00;0.85;;;0.32;;
57643;SDS011;43474;46.510;6.686;2024-03-23T17:55:26;0.40;;;0.25;;
57643;SDS011;43474;46.510;6.686;2024-03-23T17:57:52;0.40;;;0.40;;
57643;SDS011;43474;46.510;6.686;2024-03-23T18:00:18;1.25;;;0.35;;
57643;SDS011;43474;46.510;6.686;2024-03-23T18:02:45;0.63;;;0.17;;
57643;SDS011;43474;46.510;6.686;2024-03-23T18:05:14;2.05;;;0.50;;
57643;SDS011;43474;46.510;6.686;2024-03-23T18:07:40;2.17;;;0.30;;
57643;SDS011;43474;46.510;6.686;2024-03-23T18:10:06;1.48;;;0.30;;
57643;SDS011;43474;46.510;6.686;2024-03-23T18:12:32;0.40;;;0.13;;
57643;SDS011;43474;46.510;6.686;2024-03-23T18:14:58;1.95;;;0.50;;
57643;SDS011;43474;46.510;6.686;2024-03-23T18:17:26;1.30;;;0.28;;
57643;SDS011;43474;46.510;6.686;2024-03-23T18:19:52;2.35;;;0.50;;
57643;SDS011;43474;46.510;6.686;2024-03-23T18:22:18;0.30;;;0.30;;
57643;SDS011;43474;46.510;6.686;2024-03-23T18:24:43;5.18;;;0.90;;
57643;SDS011;43474;46.510;6.686;2024-03-23T18:27:10;1.55;;;0.82;;
57643;SDS011;43474;46.510;6.686;2024-03-23T18:29:38;0.17;;;0.10;;
57643;SDS011;43474;46.510;6.686;2024-03-23T18:32:07;0.05;;;0.03;;
57643;SDS011;43474;46.510;6.686;2024-03-23T18:34:33;0.32;;;0.17;;
57643;SDS011;43474;46.510;6.686;2024-03-23T18:37:00;0.95;;;0.30;;
57643;SDS011;43474;46.510;6.686;2024-03-23T18:39:25;0.30;;;0.22;;
57643;SDS011;43474;46.510;6.686;2024-03-23T18:41:53;0.57;;;0.28;;
57643;SDS011;43474;46.510;6.686;2024-03-23T18:44:19;4.90;;;1.20;;
57643;SDS011;43474;46.510;6.686;2024-03-23T18:46:45;1.00;;;0.50;;
57643;SDS011;43474;46.510;6.686;2024-03-23T18:49:10;2.80;;;0.28;;